Time;durP1;ratioP1;P1;durP2;ratioP2;P2;SDS_P1;SDS_P2;PMS_P1;PMS_P2;Temp;Humidity;BMP_temperature;BMP_pressure;BME280_temperature;BME280_humidity;BME280_pressure;Samples;Min_cycle;Max_cycle;Signal;HPM_P1;HPM_P2
2023/08/10 00:00:26;;;;;;;5.93;5.07;;;13.10;99.90;;;;;;5031451;28;20232;-78
2023/08/10 00:02:55;;;;;;;8.13;5.37;;;13.10;99.90;;;;;;5031882;28;20209;-79
2023/08/10 00:05:24;;;;;;;5.57;5.07;;;13.10;99.90;;;;;;5036482;28;20654;-79
2023/08/10 00:07:52;;;;;;;7.37;5.33;;;13.00;99.90;;;;;;5051633;28;20216;-76
2023/08/10 00:10:20;;;;;;;7.23;6.00;;;13.00;99.90;;;;;;5038010;28;20212;-79
2023/08/10 00:12:49;;;;;;;7.90;6.10;;;13.10;99.90;;;;;;5031708;28;20563;-79
2023/08/10 00:15:18;;;;;;;9.57;6.00;;;13.10;99.90;;;;;;5032102;28;20213;-80
2023/08/10 00:17:46;;;;;;;7.67;6.30;;;13.10;99.90;;;;;;5031344;28;20204;-78
2023/08/10 00:20:15;;;;;;;6.93;5.60;;;13.00;99.90;;;;;;5031750;28;20286;-79
2023/08/10 00:22:43;;;;;;;9.43;6.23;;;13.00;99.90;;;;;;5031263;28;20212;-79
2023/08/10 00:25:12;;;;;;;6.47;5.87;;;13.00;99.90;;;;;;5031784;28;20220;-80
2023/08/10 00:27:40;;;;;;;9.87;6.27;;;13.00;99.90;;;;;;5031304;28;20686;-77
2023/08/10 00:30:09;;;;;;;9.97;6.33;;;13.00;99.90;;;;;;5031781;28;20209;-79
2023/08/10 00:32:39;;;;;;;8.33;6.67;;;13.00;99.90;;;;;;5031345;28;20212;-79
2023/08/10 00:35:07;;;;;;;7.90;5.87;;;13.00;99.90;;;;;;5031591;28;20667;-80
2023/08/10 00:37:36;;;;;;;6.73;5.90;;;12.90;99.90;;;;;;5034866;28;20215;-77
2023/08/10 00:40:05;;;;;;;8.27;6.10;;;12.90;99.90;;;;;;5035197;28;20235;-79
2023/08/10 00:42:33;;;;;;;6.97;6.10;;;12.90;99.90;;;;;;5035187;28;20221;-78
2023/08/10 00:45:02;;;;;;;8.03;6.43;;;12.80;99.90;;;;;;5035201;28;20213;-78
2023/08/10 00:47:30;;;;;;;6.57;5.70;;;12.70;99.90;;;;;;5035075;28;20306;-79
2023/08/10 00:49:59;;;;;;;9.60;6.80;;;12.70;99.90;;;;;;5034886;28;20201;-79
2023/08/10 00:52:28;;;;;;;7.80;6.27;;;12.70;99.90;;;;;;5034414;28;20205;-80
2023/08/10 00:54:56;;;;;;;8.77;6.70;;;12.60;99.90;;;;;;5044727;28;20212;-80
2023/08/10 00:57:24;;;;;;;7.27;5.97;;;12.60;99.90;;;;;;5054855;28;20258;-78
2023/08/10 00:59:52;;;;;;;7.83;6.70;;;12.60;99.90;;;;;;5054766;28;20282;-78
2023/08/10 01:02:22;;;;;;;8.27;6.93;;;12.60;99.90;;;;;;5054228;28;20689;-80
2023/08/10 01:04:50;;;;;;;8.77;7.70;;;12.60;99.90;;;;;;5043048;28;20209;-80
2023/08/10 01:07:26;;;;;;;8.20;7.33;;;12.50;99.90;;;;;;5034524;28;20220;-79
2023/08/10 01:10:00;;;;;;;8.97;8.03;;;12.50;99.90;;;;;;5035098;28;20197;-79
2023/08/10 01:12:37;;;;;;;8.73;7.30;;;12.40;99.90;;;;;;5034029;28;20211;-79
2023/08/10 01:15:13;;;;;;;10.80;8.33;;;12.40;99.90;;;;;;5034640;28;20286;-79
2023/08/10 01:17:48;;;;;;;9.63;8.47;;;12.30;99.90;;;;;;5034616;28;20242;-80
2023/08/10 01:20:19;;;;;;;10.63;8.17;;;12.30;99.90;;;;;;5036275;28;20316;-79
2023/08/10 01:23:02;;;;;;;9.83;8.17;;;12.20;99.90;;;;;;5054306;28;20318;-78
2023/08/10 01:25:32;;;;;;;11.50;9.03;;;12.20;99.90;;;;;;5054690;28;20553;-80
2023/08/10 01:28:01;;;;;;;11.00;8.57;;;12.20;99.90;;;;;;5049500;28;20229;-79
2023/08/10 01:30:29;;;;;;;11.70;8.07;;;12.10;99.90;;;;;;5034420;28;20205;-80
2023/08/10 01:32:58;;;;;;;11.63;9.43;;;12.10;99.90;;;;;;5033830;28;20228;-80
2023/08/10 01:35:26;;;;;;;11.57;9.70;;;12.10;99.90;;;;;;5034434;28;20209;-80
2023/08/10 01:37:54;;;;;;;10.80;9.70;;;12.10;99.90;;;;;;5033863;28;20278;-80
2023/08/10 01:40:22;;;;;;;10.07;8.87;;;12.00;99.90;;;;;;5033986;28;20681;-79
2023/08/10 01:42:52;;;;;;;11.53;8.97;;;12.00;99.90;;;;;;5033657;28;20212;-79
2023/08/10 01:45:20;;;;;;;11.33;10.07;;;12.00;99.90;;;;;;5033839;28;20212;-79
2023/08/10 01:47:53;;;;;;;9.80;8.80;;;12.00;99.90;;;;;;5033184;28;20316;-78
2023/08/10 01:50:25;;;;;;;11.57;9.90;;;12.00;99.90;;;;;;5033896;28;20211;-78
2023/08/10 01:52:56;;;;;;;13.73;10.80;;;12.00;99.90;;;;;;5033419;28;20243;-79
2023/08/10 01:55:24;;;;;;;11.63;9.40;;;12.10;99.90;;;;;;5033545;28;20477;-80
2023/08/10 01:57:54;;;;;;;10.80;9.47;;;12.00;99.90;;;;;;5033613;28;20212;-80
2023/08/10 02:00:22;;;;;;;11.57;10.37;;;12.10;99.90;;;;;;5033731;28;20229;-78
2023/08/10 02:02:51;;;;;;;12.83;11.00;;;12.10;99.90;;;;;;5039413;28;20212;-80
2023/08/10 02:05:19;;;;;;;11.20;9.60;;;12.10;99.90;;;;;;5033701;28;20577;-80
2023/08/10 02:07:49;;;;;;;13.00;10.63;;;12.10;99.90;;;;;;5033434;28;20246;-80
2023/08/10 02:10:17;;;;;;;12.63;11.27;;;12.20;99.90;;;;;;5033673;28;20204;-80
2023/08/10 02:12:45;;;;;;;11.70;10.50;;;12.20;99.90;;;;;;5033218;28;20229;-80
2023/08/10 02:15:15;;;;;;;14.60;13.07;;;12.20;99.90;;;;;;5033532;28;20556;-79
2023/08/10 02:17:44;;;;;;;15.23;12.23;;;12.30;99.90;;;;;;5033080;28;20703;-74
2023/08/10 02:20:13;;;;;;;14.17;12.67;;;12.30;99.90;;;;;;5033087;28;20358;-77
2023/08/10 02:22:43;;;;;;;14.40;11.60;;;12.40;99.90;;;;;;5032674;28;20248;-79
2023/08/10 02:25:11;;;;;;;12.60;11.30;;;12.40;99.90;;;;;;5033199;28;20213;-74
2023/08/10 02:27:40;;;;;;;12.97;10.83;;;12.50;99.90;;;;;;5032915;28;20267;-77
2023/08/10 02:30:09;;;;;;;13.77;11.97;;;12.50;99.90;;;;;;5032794;28;20263;-77
2023/08/10 02:32:39;;;;;;;12.23;11.03;;;12.60;99.90;;;;;;5032816;28;20209;-78
2023/08/10 02:35:09;;;;;;;11.97;10.77;;;12.60;99.90;;;;;;5032712;28;20316;-74
2023/08/10 02:37:37;;;;;;;11.77;9.93;;;12.60;99.90;;;;;;5032477;28;20209;-79
2023/08/10 02:40:07;;;;;;;12.30;11.10;;;12.60;99.90;;;;;;5032560;28;20624;-78
2023/08/10 02:42:35;;;;;;;12.83;10.80;;;12.60;99.90;;;;;;5032697;28;20209;-76
2023/08/10 02:45:04;;;;;;;12.77;11.47;;;12.60;99.90;;;;;;5035920;28;20223;-76
2023/08/10 02:47:33;;;;;;;14.30;11.47;;;12.60;99.90;;;;;;5052604;28;20290;-75
2023/08/10 02:50:05;;;;;;;11.57;10.47;;;12.60;99.90;;;;;;5052638;28;20270;-76
2023/08/10 02:52:34;;;;;;;12.33;11.13;;;12.70;99.90;;;;;;5052485;28;20196;-75
2023/08/10 02:55:03;;;;;;;13.53;12.10;;;12.70;99.90;;;;;;5043152;28;20213;-77
2023/08/10 02:57:32;;;;;;;13.73;12.33;;;12.70;99.90;;;;;;5032256;28;20331;-75
2023/08/10 03:00:00;;;;;;;16.47;12.03;;;12.70;99.90;;;;;;5031669;28;20670;-75
2023/08/10 03:02:29;;;;;;;12.27;10.97;;;12.70;99.90;;;;;;5039871;28;20315;-74
2023/08/10 03:04:57;;;;;;;14.73;11.20;;;12.70;99.90;;;;;;5032257;28;20217;-79
2023/08/10 03:07:27;;;;;;;16.10;12.03;;;12.70;99.90;;;;;;5032173;28;20307;-78
2023/08/10 03:09:56;;;;;;;12.93;11.63;;;12.70;99.90;;;;;;5031879;28;20215;-80
2023/08/10 03:12:24;;;;;;;13.10;11.80;;;12.70;99.90;;;;;;5031298;28;20717;-79
2023/08/10 03:14:52;;;;;;;13.87;12.40;;;12.80;99.90;;;;;;5032435;28;20606;-78
2023/08/10 03:17:20;;;;;;;18.80;12.80;;;12.70;99.90;;;;;;5032198;28;20581;-79
2023/08/10 03:19:50;;;;;;;14.70;13.20;;;12.80;99.90;;;;;;5032048;28;20213;-78
2023/08/10 03:22:19;;;;;;;13.57;12.27;;;12.70;99.90;;;;;;5031530;28;20225;-79
2023/08/10 03:24:48;;;;;;;14.70;13.07;;;12.70;99.90;;;;;;5031979;28;20275;-79
2023/08/10 03:27:16;;;;;;;15.10;12.83;;;12.70;99.90;;;;;;5031891;28;20209;-80
2023/08/10 03:29:45;;;;;;;17.03;14.07;;;12.70;99.90;;;;;;5032145;28;20545;-80
2023/08/10 03:32:13;;;;;;;14.77;13.27;;;12.70;99.90;;;;;;5031457;28;20207;-79
2023/08/10 03:34:41;;;;;;;16.00;14.20;;;12.60;99.90;;;;;;5032384;28;20215;-78
2023/08/10 03:37:09;;;;;;;17.17;14.83;;;12.60;99.90;;;;;;5032382;28;20208;-77
2023/08/10 03:39:37;;;;;;;15.90;14.23;;;12.50;99.90;;;;;;5031793;28;20209;-77
2023/08/10 03:42:07;;;;;;;16.10;14.50;;;12.50;99.90;;;;;;5031301;28;20224;-77
2023/08/10 03:44:35;;;;;;;15.10;13.50;;;12.40;99.90;;;;;;5031797;28;20684;-80
2023/08/10 03:47:04;;;;;;;15.73;13.97;;;12.40;99.90;;;;;;5031460;28;20709;-77
2023/08/10 03:49:32;;;;;;;18.57;14.37;;;12.30;99.90;;;;;;5031661;28;20217;-80
2023/08/10 03:52:02;;;;;;;16.60;14.20;;;12.30;99.90;;;;;;5031681;28;20267;-78
2023/08/10 03:54:31;;;;;;;15.27;13.60;;;12.20;99.90;;;;;;5032014;28;20718;-77
2023/08/10 03:56:59;;;;;;;17.70;15.10;;;12.20;99.90;;;;;;5031779;28;20213;-75
2023/08/10 03:59:29;;;;;;;15.13;13.67;;;12.10;99.90;;;;;;5033999;28;20217;-77
2023/08/10 04:01:58;;;;;;;16.00;13.97;;;12.10;99.90;;;;;;5051045;28;20227;-76
2023/08/10 04:04:26;;;;;;;17.53;15.57;;;12.00;99.90;;;;;;5043197;28;20205;-80
2023/08/10 04:06:54;;;;;;;17.20;14.90;;;12.00;99.90;;;;;;5031661;28;20216;-78
2023/08/10 04:09:22;;;;;;;21.27;18.17;;;12.00;99.90;;;;;;5031796;28;20209;-79
2023/08/10 04:11:51;;;;;;;21.30;17.90;;;12.00;99.90;;;;;;5034658;28;20205;-80
2023/08/10 04:14:19;;;;;;;19.30;16.50;;;12.00;99.90;;;;;;5035634;28;20208;-79
2023/08/10 04:16:48;;;;;;;20.47;17.30;;;12.00;99.90;;;;;;5035667;28;20213;-76
2023/08/10 04:19:16;;;;;;;17.53;15.03;;;12.00;99.90;;;;;;5035620;28;20254;-78
2023/08/10 04:21:46;;;;;;;17.07;15.27;;;12.00;99.90;;;;;;5035026;28;20760;-78
2023/08/10 04:24:14;;;;;;;17.33;15.43;;;12.00;99.90;;;;;;5035558;28;20215;-79
2023/08/10 04:26:42;;;;;;;18.77;16.63;;;12.00;99.90;;;;;;5035631;28;20620;-76
2023/08/10 04:29:10;;;;;;;18.13;16.00;;;11.90;99.90;;;;;;5035481;28;20266;-78
2023/08/10 04:31:38;;;;;;;16.93;14.60;;;11.90;99.90;;;;;;5035234;28;20209;-79
2023/08/10 04:34:08;;;;;;;17.73;15.70;;;11.90;99.90;;;;;;5035118;28;20271;-77
2023/08/10 04:36:37;;;;;;;16.83;15.03;;;11.90;99.90;;;;;;5035388;28;20608;-77
2023/08/10 04:39:06;;;;;;;16.03;13.67;;;11.90;99.90;;;;;;5035009;28;20220;-75
2023/08/10 04:41:34;;;;;;;18.00;16.10;;;11.80;99.90;;;;;;5036820;28;20323;-76
2023/08/10 04:44:02;;;;;;;18.17;15.47;;;11.80;99.90;;;;;;5034744;28;20216;-77
2023/08/10 04:46:30;;;;;;;19.10;17.13;;;11.90;99.90;;;;;;5034807;28;20228;-77
2023/08/10 04:48:59;;;;;;;17.97;15.60;;;11.90;99.90;;;;;;5035274;28;20205;-78
2023/08/10 04:51:28;;;;;;;21.73;17.73;;;11.90;99.90;;;;;;5034679;28;20607;-77
2023/08/10 04:53:56;;;;;;;17.70;15.80;;;12.00;99.90;;;;;;5034475;28;20205;-78
2023/08/10 04:56:24;;;;;;;20.17;17.23;;;12.00;99.90;;;;;;5035010;28;20258;-77
2023/08/10 04:58:52;;;;;;;17.57;15.67;;;12.00;99.90;;;;;;5042080;28;20205;-79
2023/08/10 05:01:20;;;;;;;19.87;17.60;;;12.10;99.90;;;;;;5034771;28;20209;-77
2023/08/10 05:03:49;;;;;;;18.23;14.83;;;12.10;99.90;;;;;;5034669;28;20225;-79
2023/08/10 05:06:17;;;;;;;17.83;16.03;;;12.10;99.90;;;;;;5035015;28;20209;-78
2023/08/10 05:08:46;;;;;;;18.37;16.47;;;12.20;99.90;;;;;;5050188;28;20266;-77
2023/08/10 05:11:16;;;;;;;16.23;14.63;;;12.20;99.90;;;;;;5054733;28;20212;-75
2023/08/10 05:13:44;;;;;;;15.90;14.30;;;12.20;99.90;;;;;;5054514;28;20689;-79
2023/08/10 05:16:12;;;;;;;17.43;15.23;;;12.30;99.90;;;;;;5049261;28;20201;-79
2023/08/10 05:18:41;;;;;;;17.13;15.43;;;12.30;99.90;;;;;;5034592;28;20498;-77
2023/08/10 05:21:10;;;;;;;16.03;14.37;;;12.40;99.90;;;;;;5034533;28;20216;-79
2023/08/10 05:23:38;;;;;;;17.23;15.53;;;12.40;99.90;;;;;;5033475;28;20231;-77
2023/08/10 05:26:08;;;;;;;18.40;16.50;;;12.40;99.90;;;;;;5034553;28;20725;-78
2023/08/10 05:28:36;;;;;;;15.97;14.27;;;12.50;99.90;;;;;;5034771;28;20212;-76
2023/08/10 05:31:04;;;;;;;16.93;15.23;;;12.60;99.90;;;;;;5034787;28;20256;-78
2023/08/10 05:33:33;;;;;;;15.83;14.10;;;12.60;99.90;;;;;;5034043;28;20709;-78
2023/08/10 05:36:01;;;;;;;17.53;15.73;;;12.70;99.90;;;;;;5034886;28;20216;-77
2023/08/10 05:38:29;;;;;;;15.70;14.07;;;12.70;99.90;;;;;;5034125;28;20262;-79
2023/08/10 05:40:57;;;;;;;15.70;14.20;;;12.70;99.90;;;;;;5034446;28;20587;-79
2023/08/10 05:43:27;;;;;;;16.60;14.90;;;12.80;99.90;;;;;;5033976;28;20542;-78
2023/08/10 05:45:55;;;;;;;15.63;14.13;;;12.80;99.90;;;;;;5034361;28;20208;-75
2023/08/10 05:48:23;;;;;;;15.50;13.27;;;12.90;99.90;;;;;;5034141;28;20670;-78
2023/08/10 05:50:51;;;;;;;15.47;13.90;;;12.90;99.90;;;;;;5034489;28;20209;-79
2023/08/10 05:53:19;;;;;;;14.63;13.13;;;13.10;99.90;;;;;;5041447;28;20212;-80
2023/08/10 05:55:48;;;;;;;14.60;13.20;;;13.10;99.90;;;;;;5034254;28;20209;-78
2023/08/10 05:58:16;;;;;;;13.43;12.13;;;13.20;99.90;;;;;;5050026;28;20437;-78
2023/08/10 06:00:45;;;;;;;12.23;10.57;;;13.20;99.90;;;;;;5053752;28;20216;-77
2023/08/10 06:03:15;;;;;;;11.13;10.13;;;13.30;99.90;;;;;;5042129;28;20760;-75
2023/08/10 06:05:44;;;;;;;11.13;9.73;;;13.30;99.90;;;;;;5034171;28;20291;-75
2023/08/10 06:08:12;;;;;;;10.13;9.23;;;13.40;99.90;;;;;;5034732;28;20225;-76
2023/08/10 06:10:40;;;;;;;8.87;8.13;;;13.50;99.90;;;;;;5034907;28;20209;-79
2023/08/10 06:13:09;;;;;;;7.83;6.87;;;13.80;99.90;;;;;;5034787;28;20263;-77
2023/08/10 06:15:37;;;;;;;6.97;5.43;;;14.10;99.90;;;;;;5034874;28;20244;-78
2023/08/10 06:18:06;;;;;;;7.67;4.93;;;14.80;99.90;;;;;;5034504;28;20216;-77
2023/08/10 06:20:35;;;;;;;5.10;4.47;;;15.30;99.90;;;;;;5033997;28;20208;-77
2023/08/10 06:23:04;;;;;;;4.60;4.20;;;15.50;99.90;;;;;;5033247;28;20591;-77
2023/08/10 06:25:32;;;;;;;4.80;3.90;;;16.00;99.90;;;;;;5033657;28;20553;-78
2023/08/10 06:28:00;;;;;;;4.57;3.80;;;16.30;99.90;;;;;;5033627;28;20216;-76
2023/08/10 06:30:29;;;;;;;4.10;3.57;;;16.60;99.90;;;;;;5037536;28;20240;-74
2023/08/10 06:32:58;;;;;;;4.90;3.60;;;16.70;99.90;;;;;;5033347;28;20579;-76
2023/08/10 06:35:27;;;;;;;5.07;3.40;;;16.80;99.90;;;;;;5033575;28;20231;-77
2023/08/10 06:37:55;;;;;;;4.60;3.50;;;16.90;99.90;;;;;;5033066;28;20267;-79
2023/08/10 06:40:24;;;;;;;3.73;3.33;;;17.00;99.90;;;;;;5033379;28;20295;-77
2023/08/10 06:42:55;;;;;;;3.43;3.13;;;16.90;99.90;;;;;;5033096;28;20229;-77
2023/08/10 06:45:23;;;;;;;4.67;3.57;;;17.10;99.90;;;;;;5033484;28;20236;-76
2023/08/10 06:47:51;;;;;;;3.33;3.00;;;17.10;99.90;;;;;;5033100;28;20665;-77
2023/08/10 06:50:20;;;;;;;3.80;3.30;;;17.10;99.90;;;;;;5033196;28;20304;-77
2023/08/10 06:52:49;;;;;;;4.20;3.00;;;17.40;99.90;;;;;;5032819;28;20205;-77
2023/08/10 06:55:17;;;;;;;4.30;3.00;;;17.60;99.90;;;;;;5035595;28;20280;-77
2023/08/10 06:57:46;;;;;;;3.33;2.83;;;18.10;99.90;;;;;;5052726;28;20553;-75
2023/08/10 07:00:20;;;;;;;4.07;3.10;;;18.60;99.90;;;;;;5053195;28;20219;-76
2023/08/10 07:02:53;;;;;;;4.43;3.00;;;19.10;99.90;;;;;;5052735;28;20697;-79
2023/08/10 07:05:26;;;;;;;3.97;2.63;;;18.80;99.90;;;;;;5032353;28;20209;-75
2023/08/10 07:07:56;;;;;;;3.50;2.40;;;19.20;99.90;;;;;;5032508;28;20582;-76
2023/08/10 07:10:24;;;;;;;2.63;2.27;;;19.90;99.90;;;;;;5032865;28;20203;-76
2023/08/10 07:12:52;;;;;;;2.90;2.10;;;20.50;99.90;;;;;;5044221;28;20213;-77
2023/08/10 07:15:20;;;;;;;2.60;2.00;;;20.90;99.90;;;;;;5052699;28;20600;-75
2023/08/10 07:17:50;;;;;;;3.47;2.10;;;21.70;99.90;;;;;;5052159;28;20208;-74
2023/08/10 07:20:20;;;;;;;2.17;1.90;;;22.50;99.90;;;;;;5040668;28;20212;-76
2023/08/10 07:22:48;;;;;;;2.05;1.70;;;22.70;99.90;;;;;;5032092;28;20212;-75
2023/08/10 07:25:18;;;;;;;2.45;1.70;;;22.70;99.90;;;;;;5032673;28;20208;-73
2023/08/10 07:27:47;;;;;;;3.13;1.92;;;23.10;99.90;;;;;;5031933;28;20236;-76
2023/08/10 07:30:16;;;;;;;1.80;1.70;;;23.50;99.90;;;;;;5032381;28;20236;-74
2023/08/10 07:32:44;;;;;;;2.38;1.70;;;24.00;99.50;;;;;;5031798;28;20208;-75
2023/08/10 07:35:13;;;;;;;1.88;1.50;;;25.00;98.00;;;;;;5032086;28;20617;-75
2023/08/10 07:37:42;;;;;;;2.85;1.63;;;26.00;90.90;;;;;;5032316;28;20267;-79
2023/08/10 07:40:11;;;;;;;2.55;1.50;;;26.30;86.40;;;;;;5032159;28;20212;-78
2023/08/10 07:42:41;;;;;;;2.67;1.50;;;26.20;90.70;;;;;;5032174;28;20271;-74
2023/08/10 07:45:10;;;;;;;1.60;1.50;;;26.80;78.50;;;;;;5031096;28;20229;-76
2023/08/10 07:47:39;;;;;;;1.80;1.35;;;26.90;77.60;;;;;;5032110;28;20229;-74
2023/08/10 07:50:07;;;;;;;2.53;1.70;;;27.60;73.10;;;;;;5031967;28;20245;-78
2023/08/10 07:52:36;;;;;;;1.80;1.58;;;28.00;70.20;;;;;;5032564;28;20204;-76
2023/08/10 07:55:05;;;;;;;2.42;1.42;;;28.30;67.00;;;;;;5051862;28;20251;-76
2023/08/10 07:57:33;;;;;;;2.10;1.30;;;29.00;64.40;;;;;;5051923;28;20208;-77
2023/08/10 08:00:06;;;;;;;3.78;1.58;;;29.20;63.60;;;;;;5051895;28;20311;-76
2023/08/10 08:02:34;;;;;;;1.77;1.33;;;29.10;63.00;;;;;;5051585;28;20654;-75
2023/08/10 08:05:03;;;;;;;2.83;1.33;;;29.10;59.20;;;;;;5051532;28;20678;-77
2023/08/10 08:07:31;;;;;;;4.63;1.50;;;28.70;60.00;;;;;;5051548;28;20590;-76
2023/08/10 08:09:59;;;;;;;2.63;1.50;;;29.10;58.70;;;;;;5051468;28;20300;-76
2023/08/10 08:12:28;;;;;;;2.22;1.30;;;29.00;54.70;;;;;;5051134;28;20250;-75
2023/08/10 08:14:56;;;;;;;2.42;1.45;;;27.10;64.50;;;;;;5051763;28;20473;-76
2023/08/10 08:17:26;;;;;;;2.88;1.58;;;28.40;58.70;;;;;;5051590;28;20215;-76
2023/08/10 08:19:57;;;;;;;3.35;1.50;;;28.60;58.50;;;;;;5033176;28;20303;-77
2023/08/10 08:22:25;;;;;;;1.40;1.30;;;28.40;60.60;;;;;;5031589;28;20275;-76
2023/08/10 08:24:53;;;;;;;1.55;1.45;;;28.10;56.30;;;;;;5031756;28;20274;-76
2023/08/10 08:27:21;;;;;;;2.08;1.50;;;28.80;59.40;;;;;;5031689;28;20575;-76
2023/08/10 08:29:50;;;;;;;1.63;1.35;;;29.20;50.80;;;;;;5031677;28;20205;-77
2023/08/10 08:32:18;;;;;;;1.55;1.40;;;25.80;57.70;;;;;;5031135;28;20671;-76
2023/08/10 08:35:08;;;;;;;3.13;1.30;;;25.70;57.80;;;;;;5031254;28;20233;-75
2023/08/10 08:37:36;;;;;;;1.77;1.65;;;25.70;66.70;;;;;;5031579;28;20223;-76
2023/08/10 08:40:05;;;;;;;2.10;1.70;;;27.00;58.80;;;;;;5031607;28;20314;-76
2023/08/10 08:42:34;;;;;;;1.40;1.30;;;27.70;60.30;;;;;;5031084;28;20255;-75
2023/08/10 08:45:03;;;;;;;1.40;1.30;;;29.50;57.60;;;;;;5031311;28;20683;-75
2023/08/10 08:47:31;;;;;;;1.63;1.52;;;29.00;53.90;;;;;;5031558;28;20240;-75
2023/08/10 08:50:00;;;;;;;2.40;1.60;;;29.10;51.70;;;;;;5031217;28;20209;-77
2023/08/10 08:52:30;;;;;;;2.60;1.27;;;29.80;55.00;;;;;;5035115;28;20212;-75
2023/08/10 08:55:00;;;;;;;3.83;1.35;;;29.40;51.10;;;;;;5051298;28;20643;-75
2023/08/10 08:57:28;;;;;;;2.88;1.35;;;27.40;49.80;;;;;;5052121;28;20208;-75
2023/08/10 08:59:57;;;;;;;1.67;1.50;;;28.10;52.20;;;;;;5055330;28;20223;-75
2023/08/10 09:02:25;;;;;;;1.85;1.45;;;28.90;53.60;;;;;;5036711;28;20614;-75
2023/08/10 09:04:59;;;;;;;2.95;1.38;;;30.00;47.40;;;;;;5034872;28;20335;-76
2023/08/10 09:07:29;;;;;;;2.33;1.27;;;29.00;49.90;;;;;;5034521;28;20225;-75
2023/08/10 09:09:58;;;;;;;2.40;1.45;;;29.10;49.20;;;;;;5034831;28;20209;-77
2023/08/10 09:12:30;;;;;;;1.73;1.25;;;28.80;50.90;;;;;;5034469;28;20267;-74
2023/08/10 09:15:03;;;;;;;2.05;1.48;;;28.20;51.70;;;;;;5034647;28;20231;-75
2023/08/10 09:17:32;;;;;;;1.52;1.30;;;28.30;50.50;;;;;;5034479;28;20346;-74
2023/08/10 09:20:02;;;;;;;1.52;1.27;;;29.10;50.40;;;;;;5034591;28;20581;-75
2023/08/10 09:22:36;;;;;;;2.15;1.35;;;28.90;48.30;;;;;;5033916;28;20217;-74
2023/08/10 09:25:06;;;;;;;1.50;1.40;;;28.50;47.90;;;;;;5037250;28;20561;-75
2023/08/10 09:27:34;;;;;;;1.27;1.20;;;28.30;48.70;;;;;;5054431;28;20362;-74
2023/08/10 09:30:04;;;;;;;1.73;1.30;;;28.30;53.20;;;;;;5054302;28;20208;-75
2023/08/10 09:32:33;;;;;;;2.08;1.40;;;28.10;50.20;;;;;;5051062;28;20209;-77
2023/08/10 09:35:02;;;;;;;2.08;1.25;;;27.60;45.10;;;;;;5034230;28;20228;-76
2023/08/10 09:37:31;;;;;;;2.42;1.45;;;27.40;50.40;;;;;;5034075;28;20602;-75
2023/08/10 09:40:04;;;;;;;2.47;1.20;;;27.70;47.60;;;;;;5034000;28;20216;-77
2023/08/10 09:42:33;;;;;;;1.63;1.35;;;27.40;50.10;;;;;;5035118;28;20655;-75
2023/08/10 09:45:08;;;;;;;1.25;1.20;;;28.20;44.80;;;;;;5033870;28;20205;-77
2023/08/10 09:47:37;;;;;;;1.45;1.20;;;28.80;41.00;;;;;;5033758;28;20710;-77
2023/08/10 09:50:08;;;;;;;2.80;1.35;;;29.30;44.80;;;;;;5043279;28;20212;-76
2023/08/10 09:52:37;;;;;;;2.55;1.38;;;28.60;43.50;;;;;;5053522;28;20220;-74
2023/08/10 09:55:09;;;;;;;1.63;1.25;;;27.00;41.90;;;;;;5053852;28;20282;-74
2023/08/10 09:57:44;;;;;;;2.03;1.42;;;28.00;48.10;;;;;;5053416;28;20554;-77
2023/08/10 10:00:18;;;;;;;2.50;1.60;;;29.30;47.20;;;;;;5038940;28;20239;-74
2023/08/10 10:02:46;;;;;;;1.92;1.50;;;29.30;41.10;;;;;;5033317;28;20297;-74
2023/08/10 10:05:17;;;;;;;1.92;1.25;;;29.50;42.40;;;;;;5033771;28;20292;-76
2023/08/10 10:08:03;;;;;;;1.25;1.17;;;29.80;38.90;;;;;;5033151;28;20213;-75
2023/08/10 10:10:35;;;;;;;2.28;1.40;;;29.70;44.00;;;;;;5033665;28;20225;-76
2023/08/10 10:13:06;;;;;;;1.88;1.30;;;30.20;40.50;;;;;;5033356;28;20213;-74
2023/08/10 10:15:36;;;;;;;1.63;1.20;;;30.70;43.30;;;;;;5033093;28;20217;-75
2023/08/10 10:18:05;;;;;;;3.85;1.50;;;30.30;40.40;;;;;;5033485;28;20255;-75
2023/08/10 10:20:35;;;;;;;2.92;1.50;;;29.90;39.90;;;;;;5033471;28;20212;-74
2023/08/10 10:23:03;;;;;;;1.65;1.15;;;29.40;41.10;;;;;;5033138;28;20209;-73
2023/08/10 10:25:33;;;;;;;1.77;1.40;;;29.00;43.80;;;;;;5033042;28;20247;-76
2023/08/10 10:28:12;;;;;;;3.42;1.40;;;29.30;41.70;;;;;;5033331;28;20359;-75
2023/08/10 10:30:54;;;;;;;1.30;1.20;;;28.80;43.80;;;;;;5032940;28;20266;-74
2023/08/10 10:33:23;;;;;;;2.33;1.20;;;29.60;43.10;;;;;;5032669;28;20209;-74
2023/08/10 10:36:09;;;;;;;1.55;1.42;;;29.10;40.60;;;;;;5032679;28;20629;-73
2023/08/10 10:38:55;;;;;;;2.65;1.50;;;28.80;36.80;;;;;;5033288;28;20276;-75
2023/08/10 10:41:34;;;;;;;1.60;1.38;;;28.30;37.10;;;;;;5032885;28;20689;-76
2023/08/10 10:44:04;;;;;;;1.20;1.10;;;27.20;40.00;;;;;;5032719;28;20569;-74
2023/08/10 10:46:37;;;;;;;2.58;1.25;;;28.00;40.30;;;;;;5033189;28;20232;-75
2023/08/10 10:49:07;;;;;;;1.25;1.23;;;28.00;36.00;;;;;;5032585;28;20216;-77
2023/08/10 10:51:48;;;;;;;1.98;1.38;;;27.20;44.00;;;;;;5051350;28;20212;-74
2023/08/10 10:54:17;;;;;;;2.13;1.35;;;28.40;38.30;;;;;;5016172;28;20639;-75
2023/08/10 10:56:48;;;;;;;1.30;1.20;;;28.00;42.60;;;;;;5032666;28;20228;-75
2023/08/10 10:59:16;;;;;;;2.75;1.40;;;29.60;42.10;;;;;;5032693;28;20213;-74
2023/08/10 11:01:48;;;;;;;3.63;1.40;;;29.70;35.80;;;;;;5032882;28;20217;-74
2023/08/10 11:04:16;;;;;;;2.38;1.50;;;27.50;43.30;;;;;;5032619;28;20690;-77
2023/08/10 11:06:44;;;;;;;1.63;1.40;;;27.50;39.40;;;;;;5032471;28;20221;-75
2023/08/10 11:09:13;;;;;;;2.13;1.38;;;27.70;37.60;;;;;;5032403;28;20259;-75
2023/08/10 11:11:47;;;;;;;1.52;1.42;;;27.10;44.50;;;;;;5032385;28;20421;-74
2023/08/10 11:14:16;;;;;;;1.50;1.15;;;27.00;41.00;;;;;;5032654;28;20232;-75
2023/08/10 11:16:45;;;;;;;1.70;1.48;;;26.80;43.30;;;;;;5032409;28;20224;-76
2023/08/10 11:19:14;;;;;;;2.58;1.30;;;26.50;43.40;;;;;;5032148;28;20209;-77
2023/08/10 11:21:47;;;;;;;1.88;1.40;;;26.40;45.80;;;;;;5031849;28;20247;-77
2023/08/10 11:24:15;;;;;;;1.60;1.30;;;26.70;44.10;;;;;;5032486;28;20201;-78
2023/08/10 11:26:43;;;;;;;1.97;1.40;;;26.40;44.30;;;;;;5032594;28;20215;-77
2023/08/10 11:29:13;;;;;;;2.33;1.60;;;26.60;41.10;;;;;;5032009;28;20278;-76
2023/08/10 11:31:42;;;;;;;2.63;1.50;;;26.10;38.00;;;;;;5032449;28;20266;-76
2023/08/10 11:34:22;;;;;;;1.80;1.50;;;25.60;35.50;;;;;;5032482;28;20293;-74
2023/08/10 11:36:52;;;;;;;1.63;1.50;;;25.50;38.70;;;;;;5032291;28;20231;-76
2023/08/10 11:39:21;;;;;;;1.73;1.57;;;25.70;43.50;;;;;;5032140;28;20208;-77
2023/08/10 11:41:49;;;;;;;1.63;1.20;;;25.20;42.80;;;;;;5031872;28;20213;-77
2023/08/10 11:44:30;;;;;;;4.10;1.50;;;25.40;41.70;;;;;;5032063;28;20213;-76
2023/08/10 11:46:59;;;;;;;1.57;1.47;;;25.30;43.40;;;;;;5032028;28;20307;-77
2023/08/10 11:49:32;;;;;;;3.00;1.50;;;25.40;47.70;;;;;;5044497;28;20212;-77
2023/08/10 11:52:02;;;;;;;2.50;1.60;;;25.40;44.70;;;;;;5052120;28;20578;-77
2023/08/10 11:54:34;;;;;;;1.93;1.40;;;24.90;40.30;;;;;;5032429;28;20241;-76
2023/08/10 11:57:10;;;;;;;1.80;1.50;;;24.90;39.60;;;;;;5032180;28;20679;-79
2023/08/10 11:59:39;;;;;;;2.57;1.40;;;25.10;41.70;;;;;;5031767;28;20204;-77
2023/08/10 12:02:11;;;;;;;1.53;1.43;;;25.20;44.20;;;;;;5031057;28;20655;-75
2023/08/10 12:04:40;;;;;;;2.60;1.63;;;25.20;44.20;;;;;;5031774;28;20239;-78
2023/08/10 12:07:09;;;;;;;1.97;1.40;;;25.30;41.30;;;;;;5032046;28;20209;-77
2023/08/10 12:09:45;;;;;;;1.50;1.40;;;25.60;46.30;;;;;;5032070;28;20220;-78
2023/08/10 12:12:13;;;;;;;4.43;1.80;;;25.40;41.80;;;;;;5031444;28;20205;-78
2023/08/10 12:14:42;;;;;;;1.80;1.70;;;25.20;38.80;;;;;;5031951;28;20213;-78
2023/08/10 12:17:12;;;;;;;1.67;1.50;;;24.60;38.80;;;;;;5031962;28;20221;-78
2023/08/10 12:19:40;;;;;;;1.97;1.47;;;24.60;40.80;;;;;;5031652;28;20230;-79
2023/08/10 12:22:09;;;;;;;2.07;1.73;;;24.70;44.60;;;;;;5031607;28;20278;-79
2023/08/10 12:24:37;;;;;;;1.93;1.67;;;24.50;42.00;;;;;;5031931;28;20209;-78
2023/08/10 12:27:05;;;;;;;2.97;1.67;;;24.30;43.30;;;;;;5032028;28;20267;-78
2023/08/10 12:29:34;;;;;;;2.00;1.50;;;24.50;41.80;;;;;;5031594;28;20703;-76
2023/08/10 12:32:04;;;;;;;2.67;1.80;;;24.20;41.50;;;;;;5033170;28;20216;-78
2023/08/10 12:34:32;;;;;;;3.77;1.67;;;24.40;43.20;;;;;;5035884;28;20551;-78
2023/08/10 12:37:00;;;;;;;3.60;1.60;;;24.60;42.10;;;;;;5035478;28;20220;-77
2023/08/10 12:39:31;;;;;;;2.57;1.73;;;24.70;44.10;;;;;;5035699;28;20302;-79
2023/08/10 12:42:02;;;;;;;2.27;1.80;;;24.40;42.50;;;;;;5036051;28;20231;-79
2023/08/10 12:44:31;;;;;;;3.80;1.70;;;24.40;44.70;;;;;;5035134;28;20224;-77
2023/08/10 12:47:01;;;;;;;3.83;1.90;;;24.70;46.60;;;;;;5038890;28;20353;-77
2023/08/10 12:49:30;;;;;;;2.10;1.50;;;24.90;44.50;;;;;;5055500;28;20266;-76
2023/08/10 12:51:59;;;;;;;3.27;1.60;;;25.00;47.40;;;;;;5054760;28;20216;-76